sensor_id;sensor_type;location;lat;lon;timestamp;pressure;altitude;pressure_sealevel;temperature;humidity
64189;BME280;50493;50.970;10.082;2023-11-21T00:00:12;98640.84;;;9.38;65.61
64189;BME280;50493;50.970;10.082;2023-11-21T00:02:38;98643.41;;;9.39;65.45
64189;BME280;50493;50.970;10.082;2023-11-21T00:05:05;98636.13;;;9.21;66.01
64189;BME280;50493;50.970;10.082;2023-11-21T00:07:33;98640.78;;;9.09;66.65
64189;BME280;50493;50.970;10.082;2023-11-21T00:09:58;98646.47;;;8.91;67.11
64189;BME280;50493;50.970;10.082;2023-11-21T00:12:23;98651.75;;;8.88;65.48
64189;BME280;50493;50.970;10.082;2023-11-21T00:14:50;98646.28;;;9.00;65.07
64189;BME280;50493;50.970;10.082;2023-11-21T00:17:16;98649.44;;;9.11;63.31
64189;BME280;50493;50.970;10.082;2023-11-21T00:19:42;98640.88;;;9.06;65.50
64189;BME280;50493;50.970;10.082;2023-11-21T00:22:08;98646.00;;;9.09;65.33
64189;BME280;50493;50.970;10.082;2023-11-21T00:24:34;98636.94;;;9.23;64.64
64189;BME280;50493;50.970;10.082;2023-11-21T00:26:59;98637.84;;;9.22;64.33
64189;BME280;50493;50.970;10.082;2023-11-21T00:29:25;98639.84;;;9.12;65.39
64189;BME280;50493;50.970;10.082;2023-11-21T00:31:51;98650.91;;;8.87;66.82
64189;BME280;50493;50.970;10.082;2023-11-21T00:34:17;98653.53;;;8.87;66.86
64189;BME280;50493;50.970;10.082;2023-11-21T00:36:43;98652.53;;;8.91;66.65
64189;BME280;50493;50.970;10.082;2023-11-21T00:39:08;98654.50;;;8.83;67.07
64189;BME280;50493;50.970;10.082;2023-11-21T00:41:34;98655.44;;;8.80;65.76
64189;BME280;50493;50.970;10.082;2023-11-21T00:44:00;98658.78;;;8.86;66.42
64189;BME280;50493;50.970;10.082;2023-11-21T00:46:26;98661.34;;;8.87;66.27
64189;BME280;50493;50.970;10.082;2023-11-21T00:48:54;98673.75;;;8.77;67.14
64189;BME280;50493;50.970;10.082;2023-11-21T00:51:21;98676.03;;;8.90;66.48
64189;BME280;50493;50.970;10.082;2023-11-21T00:53:47;98684.13;;;8.79;67.01
64189;BME280;50493;50.970;10.082;2023-11-21T00:56:12;98676.97;;;8.87;66.63
64189;BME280;50493;50.970;10.082;2023-11-21T00:58:38;98679.09;;;9.07;65.79
64189;BME280;50493;50.970;10.082;2023-11-21T01:01:04;98670.50;;;9.04;65.53
64189;BME280;50493;50.970;10.082;2023-11-21T01:03:29;98675.91;;;8.96;65.96
64189;BME280;50493;50.970;10.082;2023-11-21T01:05:55;98680.50;;;8.85;66.44
64189;BME280;50493;50.970;10.082;2023-11-21T01:08:22;98681.41;;;8.84;66.47
64189;BME280;50493;50.970;10.082;2023-11-21T01:10:49;98680.44;;;8.88;66.42
64189;BME280;50493;50.970;10.082;2023-11-21T01:13:14;98679.63;;;8.86;66.26
64189;BME280;50493;50.970;10.082;2023-11-21T01:15:40;98682.88;;;8.94;66.00
64189;BME280;50493;50.970;10.082;2023-11-21T01:18:06;98686.63;;;8.84;66.45
64189;BME280;50493;50.970;10.082;2023-11-21T01:20:32;98678.34;;;8.68;66.95
64189;BME280;50493;50.970;10.082;2023-11-21T01:22:58;98685.59;;;8.55;67.55
64189;BME280;50493;50.970;10.082;2023-11-21T01:25:24;98685.34;;;8.29;68.47
64189;BME280;50493;50.970;10.082;2023-11-21T01:27:50;98699.91;;;8.38;68.10
64189;BME280;50493;50.970;10.082;2023-11-21T01:30:15;98694.69;;;8.38;67.99
64189;BME280;50493;50.970;10.082;2023-11-21T01:32:41;98696.66;;;8.28;68.46
64189;BME280;50493;50.970;10.082;2023-11-21T01:35:07;98694.22;;;8.21;68.83
64189;BME280;50493;50.970;10.082;2023-11-21T01:37:34;98690.75;;;8.22;68.70
64189;BME280;50493;50.970;10.082;2023-11-21T01:40:00;98704.09;;;8.44;67.97
64189;BME280;50493;50.970;10.082;2023-11-21T01:42:27;98696.69;;;8.63;67.15
64189;BME280;50493;50.970;10.082;2023-11-21T01:44:54;98700.47;;;8.86;66.34
64189;BME280;50493;50.970;10.082;2023-11-21T01:47:20;98696.97;;;8.87;65.98
64189;BME280;50493;50.970;10.082;2023-11-21T01:49:46;98695.19;;;8.89;65.82
64189;BME280;50493;50.970;10.082;2023-11-21T01:52:12;98698.53;;;8.94;65.64
64189;BME280;50493;50.970;10.082;2023-11-21T01:54:38;98698.63;;;8.91;65.57
64189;BME280;50493;50.970;10.082;2023-11-21T01:57:04;98701.03;;;8.64;66.15
64189;BME280;50493;50.970;10.082;2023-11-21T01:59:34;98708.16;;;8.56;66.87
64189;BME280;50493;50.970;10.082;2023-11-21T02:02:02;98706.13;;;8.67;66.51
64189;BME280;50493;50.970;10.082;2023-11-21T02:04:27;98705.91;;;8.76;65.99
64189;BME280;50493;50.970;10.082;2023-11-21T02:06:53;98700.63;;;8.79;65.90
64189;BME280;50493;50.970;10.082;2023-11-21T02:09:24;98703.53;;;9.03;65.24
64189;BME280;50493;50.970;10.082;2023-11-21T02:11:51;98704.50;;;8.99;64.92
64189;BME280;50493;50.970;10.082;2023-11-21T02:14:16;98711.22;;;9.08;64.65
64189;BME280;50493;50.970;10.082;2023-11-21T02:16:46;98711.59;;;8.92;65.14
64189;BME280;50493;50.970;10.082;2023-11-21T02:19:18;98713.69;;;8.78;65.51
64189;BME280;50493;50.970;10.082;2023-11-21T02:21:45;98714.84;;;8.66;66.16
64189;BME280;50493;50.970;10.082;2023-11-21T02:24:12;98716.56;;;8.67;66.12
64189;BME280;50493;50.970;10.082;2023-11-21T02:26:38;98711.97;;;8.78;65.60
64189;BME280;50493;50.970;10.082;2023-11-21T02:29:03;98719.69;;;8.82;65.42
64189;BME280;50493;50.970;10.082;2023-11-21T02:31:29;98714.47;;;9.16;65.12
64189;BME280;50493;50.970;10.082;2023-11-21T02:33:55;98718.13;;;9.43;63.74
64189;BME280;50493;50.970;10.082;2023-11-21T02:36:20;98718.06;;;9.12;64.23
64189;BME280;50493;50.970;10.082;2023-11-21T02:38:47;98726.09;;;9.04;64.48
64189;BME280;50493;50.970;10.082;2023-11-21T02:41:13;98715.75;;;9.01;64.27
64189;BME280;50493;50.970;10.082;2023-11-21T02:43:39;98718.53;;;8.93;64.73
64189;BME280;50493;50.970;10.082;2023-11-21T02:46:04;98717.88;;;8.84;65.17
64189;BME280;50493;50.970;10.082;2023-11-21T02:48:30;98721.41;;;8.83;65.24
64189;BME280;50493;50.970;10.082;2023-11-21T02:50:56;98719.50;;;8.89;64.89
64189;BME280;50493;50.970;10.082;2023-11-21T02:53:21;98712.69;;;8.84;65.15
64189;BME280;50493;50.970;10.082;2023-11-21T02:55:46;98719.69;;;8.82;65.19
64189;BME280;50493;50.970;10.082;2023-11-21T02:58:13;98717.03;;;8.83;65.14
64189;BME280;50493;50.970;10.082;2023-11-21T03:00:38;98710.91;;;8.86;65.05
64189;BME280;50493;50.970;10.082;2023-11-21T03:03:07;98715.22;;;8.87;64.89
64189;BME280;50493;50.970;10.082;2023-11-21T03:05:33;98716.72;;;8.97;64.58
64189;BME280;50493;50.970;10.082;2023-11-21T03:08:00;98715.09;;;8.91;64.67
64189;BME280;50493;50.970;10.082;2023-11-21T03:10:26;98708.56;;;9.09;63.72
64189;BME280;50493;50.970;10.082;2023-11-21T03:12:52;98709.81;;;8.94;64.23
64189;BME280;50493;50.970;10.082;2023-11-21T03:15:19;98716.19;;;8.83;64.77
64189;BME280;50493;50.970;10.082;2023-11-21T03:17:44;98710.34;;;8.73;65.14
64189;BME280;50493;50.970;10.082;2023-11-21T03:20:10;98721.56;;;8.76;65.21
64189;BME280;50493;50.970;10.082;2023-11-21T03:22:37;98716.25;;;8.79;64.90
64189;BME280;50493;50.970;10.082;2023-11-21T03:25:04;98728.00;;;8.61;65.59
64189;BME280;50493;50.970;10.082;2023-11-21T03:27:30;98735.69;;;8.66;65.41
64189;BME280;50493;50.970;10.082;2023-11-21T03:29:55;98733.47;;;8.51;65.85
64189;BME280;50493;50.970;10.082;2023-11-21T03:32:22;98738.84;;;8.43;66.12
64189;BME280;50493;50.970;10.082;2023-11-21T03:34:55;98732.88;;;8.39;66.58
64189;BME280;50493;50.970;10.082;2023-11-21T03:37:21;98730.72;;;8.57;65.88
64189;BME280;50493;50.970;10.082;2023-11-21T03:39:46;98734.13;;;8.59;65.61
64189;BME280;50493;50.970;10.082;2023-11-21T03:42:12;98736.66;;;8.62;65.29
64189;BME280;50493;50.970;10.082;2023-11-21T03:44:37;98749.38;;;8.74;65.18
64189;BME280;50493;50.970;10.082;2023-11-21T03:47:03;98750.13;;;8.79;64.71
64189;BME280;50493;50.970;10.082;2023-11-21T03:49:30;98750.97;;;8.82;64.61
64189;BME280;50493;50.970;10.082;2023-11-21T03:51:56;98748.53;;;8.74;64.79
64189;BME280;50493;50.970;10.082;2023-11-21T03:54:21;98750.44;;;8.67;65.09
64189;BME280;50493;50.970;10.082;2023-11-21T03:56:47;98754.00;;;8.63;65.29
64189;BME280;50493;50.970;10.082;2023-11-21T03:59:12;98761.41;;;8.44;66.08
64189;BME280;50493;50.970;10.082;2023-11-21T04:01:37;98754.59;;;8.38;65.95
64189;BME280;50493;50.970;10.082;2023-11-21T04:04:03;98764.22;;;8.35;66.09
64189;BME280;50493;50.970;10.082;2023-11-21T04:06:30;98768.69;;;8.28;66.46
64189;BME280;50493;50.970;10.082;2023-11-21T04:08:58;98776.59;;;8.25;66.69
64189;BME280;50493;50.970;10.082;2023-11-21T04:11:23;98774.03;;;8.23;66.85
64189;BME280;50493;50.970;10.082;2023-11-21T04:13:48;98774.59;;;8.36;66.06
64189;BME280;50493;50.970;10.082;2023-11-21T04:16:14;98781.44;;;8.40;66.09
64189;BME280;50493;50.970;10.082;2023-11-21T04:18:39;98787.00;;;8.64;65.04
64189;BME280;50493;50.970;10.082;2023-11-21T04:21:05;98783.38;;;8.70;64.91
64189;BME280;50493;50.970;10.082;2023-11-21T04:23:32;98785.50;;;8.90;64.25
64189;BME280;50493;50.970;10.082;2023-11-21T04:25:58;98786.56;;;8.81;64.24
64189;BME280;50493;50.970;10.082;2023-11-21T04:28:24;98784.84;;;8.82;64.28
64189;BME280;50493;50.970;10.082;2023-11-21T04:30:49;98786.81;;;8.72;64.55
64189;BME280;50493;50.970;10.082;2023-11-21T04:33:15;98788.22;;;8.85;63.91
64189;BME280;50493;50.970;10.082;2023-11-21T04:35:41;98787.59;;;8.75;64.11
64189;BME280;50493;50.970;10.082;2023-11-21T04:38:06;98788.72;;;8.63;64.66
64189;BME280;50493;50.970;10.082;2023-11-21T04:40:33;98782.84;;;8.57;64.95
64189;BME280;50493;50.970;10.082;2023-11-21T04:42:59;98790.41;;;8.66;64.72
64189;BME280;50493;50.970;10.082;2023-11-21T04:45:24;98785.72;;;8.80;63.92
64189;BME280;50493;50.970;10.082;2023-11-21T04:47:49;98785.81;;;8.77;64.17
64189;BME280;50493;50.970;10.082;2023-11-21T04:50:15;98784.38;;;8.64;64.44
64189;BME280;50493;50.970;10.082;2023-11-21T04:52:40;98790.66;;;8.55;64.79
64189;BME280;50493;50.970;10.082;2023-11-21T04:55:06;98794.91;;;8.61;64.67
64189;BME280;50493;50.970;10.082;2023-11-21T04:57:36;98789.69;;;8.61;64.66
64189;BME280;50493;50.970;10.082;2023-11-21T05:00:02;98794.72;;;8.67;64.33
64189;BME280;50493;50.970;10.082;2023-11-21T05:02:30;98798.66;;;8.48;65.08
64189;BME280;50493;50.970;10.082;2023-11-21T05:04:56;98799.97;;;8.26;65.80
64189;BME280;50493;50.970;10.082;2023-11-21T05:07:22;98801.47;;;8.38;65.65
64189;BME280;50493;50.970;10.082;2023-11-21T05:09:47;98804.97;;;8.37;65.38
64189;BME280;50493;50.970;10.082;2023-11-21T05:12:13;98805.06;;;8.33;65.57
64189;BME280;50493;50.970;10.082;2023-11-21T05:14:41;98810.47;;;8.23;65.78
64189;BME280;50493;50.970;10.082;2023-11-21T05:17:07;98814.94;;;8.17;65.98
64189;BME280;50493;50.970;10.082;2023-11-21T05:19:33;98810.59;;;8.17;65.70
64189;BME280;50493;50.970;10.082;2023-11-21T05:21:59;98822.00;;;8.11;66.16
64189;BME280;50493;50.970;10.082;2023-11-21T05:24:25;98827.47;;;7.99;66.57
64189;BME280;50493;50.970;10.082;2023-11-21T05:26:51;98825.06;;;7.88;67.16
64189;BME280;50493;50.970;10.082;2023-11-21T05:29:16;98836.41;;;7.84;67.23
64189;BME280;50493;50.970;10.082;2023-11-21T05:31:43;98838.84;;;7.93;66.82
64189;BME280;50493;50.970;10.082;2023-11-21T05:34:08;98844.97;;;7.91;66.99
64189;BME280;50493;50.970;10.082;2023-11-21T05:36:34;98839.66;;;7.95;66.84
64189;BME280;50493;50.970;10.082;2023-11-21T05:38:59;98849.41;;;8.28;65.35
64189;BME280;50493;50.970;10.082;2023-11-21T05:41:24;98835.16;;;8.04;66.04
64189;BME280;50493;50.970;10.082;2023-11-21T05:43:51;98847.78;;;7.80;67.26
64189;BME280;50493;50.970;10.082;2023-11-21T05:46:16;98851.53;;;7.65;67.75
64189;BME280;50493;50.970;10.082;2023-11-21T05:48:43;98843.56;;;7.74;67.44
64189;BME280;50493;50.970;10.082;2023-11-21T05:51:08;98850.50;;;7.72;67.57
64189;BME280;50493;50.970;10.082;2023-11-21T05:53:34;98849.09;;;7.56;67.95
64189;BME280;50493;50.970;10.082;2023-11-21T05:55:59;98843.94;;;7.53;67.72
64189;BME280;50493;50.970;10.082;2023-11-21T05:58:25;98856.09;;;7.51;68.23
64189;BME280;50493;50.970;10.082;2023-11-21T06:00:50;98860.63;;;7.41;68.36
64189;BME280;50493;50.970;10.082;2023-11-21T06:03:16;98868.66;;;7.24;69.06
64189;BME280;50493;50.970;10.082;2023-11-21T06:05:43;98870.22;;;7.34;68.43
64189;BME280;50493;50.970;10.082;2023-11-21T06:08:09;98859.88;;;7.31;68.80
64189;BME280;50493;50.970;10.082;2023-11-21T06:10:35;98863.50;;;7.21;69.26
64189;BME280;50493;50.970;10.082;2023-11-21T06:13:01;98867.84;;;7.22;68.81
64189;BME280;50493;50.970;10.082;2023-11-21T06:15:26;98870.41;;;7.23;68.87
64189;BME280;50493;50.970;10.082;2023-11-21T06:17:52;98876.44;;;7.27;68.82
64189;BME280;50493;50.970;10.082;2023-11-21T06:20:18;98878.97;;;7.30;68.58
64189;BME280;50493;50.970;10.082;2023-11-21T06:22:47;98880.84;;;7.22;68.92
64189;BME280;50493;50.970;10.082;2023-11-21T06:25:13;98888.03;;;7.04;69.61
64189;BME280;50493;50.970;10.082;2023-11-21T06:27:39;98891.59;;;6.99;69.95
64189;BME280;50493;50.970;10.082;2023-11-21T06:30:06;98891.59;;;6.99;69.66
64189;BME280;50493;50.970;10.082;2023-11-21T06:32:33;98900.41;;;6.87;70.38
64189;BME280;50493;50.970;10.082;2023-11-21T06:34:59;98896.09;;;6.86;70.15
64189;BME280;50493;50.970;10.082;2023-11-21T06:37:25;98909.00;;;6.92;69.79
64189;BME280;50493;50.970;10.082;2023-11-21T06:39:52;98902.09;;;6.91;70.28
64189;BME280;50493;50.970;10.082;2023-11-21T06:42:17;98895.88;;;7.01;69.33
64189;BME280;50493;50.970;10.082;2023-11-21T06:44:44;98912.25;;;7.06;69.40
64189;BME280;50493;50.970;10.082;2023-11-21T06:47:09;98910.72;;;6.93;69.70
64189;BME280;50493;50.970;10.082;2023-11-21T06:49:35;98917.97;;;6.69;71.10
64189;BME280;50493;50.970;10.082;2023-11-21T06:52:01;98925.78;;;6.68;70.78
64189;BME280;50493;50.970;10.082;2023-11-21T06:54:28;98923.19;;;6.68;70.58
64189;BME280;50493;50.970;10.082;2023-11-21T06:56:55;98935.34;;;6.64;70.93
64189;BME280;50493;50.970;10.082;2023-11-21T06:59:22;98931.66;;;6.81;69.98
64189;BME280;50493;50.970;10.082;2023-11-21T07:01:47;98940.25;;;6.86;70.28
64189;BME280;50493;50.970;10.082;2023-11-21T07:04:13;98935.88;;;6.91;69.63
64189;BME280;50493;50.970;10.082;2023-11-21T07:06:38;98936.66;;;6.96;69.09
64189;BME280;50493;50.970;10.082;2023-11-21T07:09:03;98935.91;;;6.88;69.43
64189;BME280;50493;50.970;10.082;2023-11-21T07:11:29;98947.13;;;6.90;69.30
64189;BME280;50493;50.970;10.082;2023-11-21T07:13:56;98943.66;;;6.91;69.28
64189;BME280;50493;50.970;10.082;2023-11-21T07:16:21;98954.09;;;6.89;69.58
64189;BME280;50493;50.970;10.082;2023-11-21T07:18:47;98951.34;;;7.00;69.20
64189;BME280;50493;50.970;10.082;2023-11-21T07:21:14;98954.72;;;7.07;68.52
64189;BME280;50493;50.970;10.082;2023-11-21T07:23:41;98952.22;;;6.99;68.61
64189;BME280;50493;50.970;10.082;2023-11-21T07:26:06;98954.75;;;7.05;68.34
64189;BME280;50493;50.970;10.082;2023-11-21T07:28:34;98953.00;;;7.04;68.64
64189;BME280;50493;50.970;10.082;2023-11-21T07:31:01;98960.66;;;7.15;68.15
64189;BME280;50493;50.970;10.082;2023-11-21T07:33:26;98974.69;;;7.03;68.19
64189;BME280;50493;50.970;10.082;2023-11-21T07:35:51;98987.69;;;7.02;68.43
64189;BME280;50493;50.970;10.082;2023-11-21T07:38:17;98989.28;;;7.10;68.12
64189;BME280;50493;50.970;10.082;2023-11-21T07:40:43;98987.28;;;7.29;67.42
64189;BME280;50493;50.970;10.082;2023-11-21T07:43:08;98991.69;;;7.26;67.24
64189;BME280;50493;50.970;10.082;2023-11-21T07:45:34;98995.44;;;7.66;65.18
64189;BME280;50493;50.970;10.082;2023-11-21T07:48:01;98995.91;;;7.33;66.89
64189;BME280;50493;50.970;10.082;2023-11-21T07:50:28;99002.94;;;7.26;67.37
64189;BME280;50493;50.970;10.082;2023-11-21T07:52:54;99000.22;;;7.37;66.80
64189;BME280;50493;50.970;10.082;2023-11-21T07:55:19;99010.81;;;7.22;67.26
64189;BME280;50493;50.970;10.082;2023-11-21T07:57:45;99012.69;;;7.10;67.83
64189;BME280;50493;50.970;10.082;2023-11-21T08:00:11;99016.47;;;6.88;68.68
64189;BME280;50493;50.970;10.082;2023-11-21T08:02:37;99019.97;;;6.84;69.30
64189;BME280;50493;50.970;10.082;2023-11-21T08:05:04;99015.19;;;7.18;67.58
64189;BME280;50493;50.970;10.082;2023-11-21T08:07:30;99015.13;;;7.21;67.61
64189;BME280;50493;50.970;10.082;2023-11-21T08:09:56;99021.09;;;7.31;66.79
64189;BME280;50493;50.970;10.082;2023-11-21T08:12:21;99019.81;;;7.60;66.25
64189;BME280;50493;50.970;10.082;2023-11-21T08:14:47;99017.28;;;8.10;63.84
64189;BME280;50493;50.970;10.082;2023-11-21T08:17:12;99011.53;;;7.91;64.77
64189;BME280;50493;50.970;10.082;2023-11-21T08:19:39;99022.09;;;7.82;64.44
64189;BME280;50493;50.970;10.082;2023-11-21T08:22:06;99020.41;;;7.17;67.42
64189;BME280;50493;50.970;10.082;2023-11-21T08:24:33;99027.38;;;7.16;67.45
64189;BME280;50493;50.970;10.082;2023-11-21T08:26:58;99028.00;;;7.34;67.06
64189;BME280;50493;50.970;10.082;2023-11-21T08:29:23;99029.72;;;7.33;67.17
64189;BME280;50493;50.970;10.082;2023-11-21T08:31:49;99039.09;;;7.47;66.46
64189;BME280;50493;50.970;10.082;2023-11-21T08:34:14;99038.53;;;7.23;67.36
64189;BME280;50493;50.970;10.082;2023-11-21T08:36:41;99036.56;;;7.40;66.49
64189;BME280;50493;50.970;10.082;2023-11-21T08:39:08;99038.34;;;7.38;66.71
64189;BME280;50493;50.970;10.082;2023-11-21T08:41:34;99032.88;;;8.11;63.27
64189;BME280;50493;50.970;10.082;2023-11-21T08:44:00;99040.75;;;8.08;62.59
64189;BME280;50493;50.970;10.082;2023-11-21T08:46:25;99049.88;;;7.79;63.59
64189;BME280;50493;50.970;10.082;2023-11-21T08:48:51;99051.47;;;7.88;63.93
64189;BME280;50493;50.970;10.082;2023-11-21T08:51:17;99056.59;;;7.93;63.80
64189;BME280;50493;50.970;10.082;2023-11-21T08:53:43;99061.78;;;7.96;64.48
64189;BME280;50493;50.970;10.082;2023-11-21T08:56:13;99064.03;;;8.16;63.19
64189;BME280;50493;50.970;10.082;2023-11-21T08:58:41;99065.25;;;7.95;63.07
64189;BME280;50493;50.970;10.082;2023-11-21T09:01:07;99058.56;;;8.32;62.68
64189;BME280;50493;50.970;10.082;2023-11-21T09:03:32;99068.28;;;8.22;63.46
64189;BME280;50493;50.970;10.082;2023-11-21T09:05:59;99065.25;;;8.46;62.81
64189;BME280;50493;50.970;10.082;2023-11-21T09:08:24;99070.31;;;8.54;62.20
64189;BME280;50493;50.970;10.082;2023-11-21T09:10:50;99060.84;;;8.50;61.33
64189;BME280;50493;50.970;10.082;2023-11-21T09:13:17;99063.84;;;8.27;63.23
64189;BME280;50493;50.970;10.082;2023-11-21T09:15:43;99071.19;;;8.03;64.16
64189;BME280;50493;50.970;10.082;2023-11-21T09:18:11;99078.91;;;8.08;64.28
64189;BME280;50493;50.970;10.082;2023-11-21T09:20:37;99073.22;;;8.37;63.94
64189;BME280;50493;50.970;10.082;2023-11-21T09:23:03;99082.06;;;8.27;64.09
64189;BME280;50493;50.970;10.082;2023-11-21T09:25:28;99088.16;;;8.27;64.31
64189;BME280;50493;50.970;10.082;2023-11-21T09:27:54;99090.63;;;7.81;65.13
64189;BME280;50493;50.970;10.082;2023-11-21T09:30:20;99090.72;;;7.73;66.11
64189;BME280;50493;50.970;10.082;2023-11-21T09:32:46;99094.31;;;8.22;64.63
64189;BME280;50493;50.970;10.082;2023-11-21T09:35:11;99097.81;;;8.71;61.71
64189;BME280;50493;50.970;10.082;2023-11-21T09:37:39;99104.41;;;8.89;61.52
64189;BME280;50493;50.970;10.082;2023-11-21T09:40:05;99105.38;;;8.83;62.56
64189;BME280;50493;50.970;10.082;2023-11-21T09:42:39;99098.38;;;8.87;61.81
64189;BME280;50493;50.970;10.082;2023-11-21T09:45:14;99098.94;;;9.04;62.21
64189;BME280;50493;50.970;10.082;2023-11-21T09:47:42;99104.28;;;8.96;62.09
64189;BME280;50493;50.970;10.082;2023-11-21T09:50:09;99094.75;;;8.94;62.25
64189;BME280;50493;50.970;10.082;2023-11-21T09:52:45;99103.78;;;8.74;62.58
64189;BME280;50493;50.970;10.082;2023-11-21T09:55:15;99108.53;;;8.54;63.02
64189;BME280;50493;50.970;10.082;2023-11-21T09:57:44;99102.88;;;8.78;62.48
64189;BME280;50493;50.970;10.082;2023-11-21T10:00:11;99105.47;;;9.24;61.83
64189;BME280;50493;50.970;10.082;2023-11-21T10:02:38;99095.81;;;9.29;62.08
64189;BME280;50493;50.970;10.082;2023-11-21T10:05:07;99098.66;;;9.59;60.51
64189;BME280;50493;50.970;10.082;2023-11-21T10:07:35;99102.50;;;9.42;60.72
64189;BME280;50493;50.970;10.082;2023-11-21T10:10:00;99096.81;;;9.64;59.93
64189;BME280;50493;50.970;10.082;2023-11-21T10:12:28;99104.66;;;9.22;61.47
64189;BME280;50493;50.970;10.082;2023-11-21T10:14:54;99104.84;;;9.12;61.78
64189;BME280;50493;50.970;10.082;2023-11-21T10:17:24;99103.00;;;9.18;61.55
64189;BME280;50493;50.970;10.082;2023-11-21T10:19:55;99111.53;;;9.26;61.72
64189;BME280;50493;50.970;10.082;2023-11-21T10:22:22;99103.66;;;9.68;60.46
64189;BME280;50493;50.970;10.082;2023-11-21T10:24:48;99098.28;;;9.74;60.16
64189;BME280;50493;50.970;10.082;2023-11-21T10:27:14;99110.75;;;9.63;61.10
64189;BME280;50493;50.970;10.082;2023-11-21T10:29:39;99109.09;;;9.59;61.31
64189;BME280;50493;50.970;10.082;2023-11-21T10:32:05;99111.59;;;9.63;61.73
64189;BME280;50493;50.970;10.082;2023-11-21T10:34:31;99111.75;;;9.57;61.30
64189;BME280;50493;50.970;10.082;2023-11-21T10:36:57;99111.00;;;9.51;62.38
64189;BME280;50493;50.970;10.082;2023-11-21T10:39:25;99107.72;;;9.42;62.64
64189;BME280;50493;50.970;10.082;2023-11-21T10:41:55;99115.44;;;9.47;62.81
64189;BME280;50493;50.970;10.082;2023-11-21T10:44:21;99116.97;;;9.57;62.61
64189;BME280;50493;50.970;10.082;2023-11-21T10:46:49;99115.34;;;9.52;62.27
64189;BME280;50493;50.970;10.082;2023-11-21T10:49:16;99115.47;;;9.45;62.85
64189;BME280;50493;50.970;10.082;2023-11-21T10:51:43;99119.59;;;9.56;64.06
64189;BME280;50493;50.970;10.082;2023-11-21T10:54:09;99120.00;;;9.76;62.84
64189;BME280;50493;50.970;10.082;2023-11-21T10:56:36;99126.03;;;9.78;62.92
64189;BME280;50493;50.970;10.082;2023-11-21T10:59:07;99124.81;;;9.95;61.92
64189;BME280;50493;50.970;10.082;2023-11-21T11:01:35;99122.50;;;9.81;62.66
64189;BME280;50493;50.970;10.082;2023-11-21T11:04:02;99128.78;;;9.74;63.14
64189;BME280;50493;50.970;10.082;2023-11-21T11:06:30;99122.56;;;9.79;62.85
64189;BME280;50493;50.970;10.082;2023-11-21T11:08:58;99123.94;;;9.55;63.21
64189;BME280;50493;50.970;10.082;2023-11-21T11:11:25;99126.44;;;9.61;63.17
64189;BME280;50493;50.970;10.082;2023-11-21T11:13:52;99122.56;;;9.79;62.79
64189;BME280;50493;50.970;10.082;2023-11-21T11:16:19;99118.84;;;9.90;62.18
64189;BME280;50493;50.970;10.082;2023-11-21T11:18:45;99122.72;;;10.09;62.01
64189;BME280;50493;50.970;10.082;2023-11-21T11:21:23;99127.34;;;9.98;62.20
64189;BME280;50493;50.970;10.082;2023-11-21T11:24:08;99130.56;;;10.09;62.36
64189;BME280;50493;50.970;10.082;2023-11-21T11:26:44;99127.84;;;9.76;62.18
64189;BME280;50493;50.970;10.082;2023-11-21T11:29:18;99133.94;;;9.75;63.33
64189;BME280;50493;50.970;10.082;2023-11-21T11:31:55;99135.59;;;9.79;61.89
64189;BME280;50493;50.970;10.082;2023-11-21T11:34:28;99143.91;;;9.58;63.91
64189;BME280;50493;50.970;10.082;2023-11-21T11:37:00;99138.09;;;9.86;61.32
64189;BME280;50493;50.970;10.082;2023-11-21T11:39:28;99138.38;;;9.73;61.01
64189;BME280;50493;50.970;10.082;2023-11-21T11:41:55;99139.06;;;9.82;62.14
64189;BME280;50493;50.970;10.082;2023-11-21T11:44:52;99134.00;;;9.74;62.04
64189;BME280;50493;50.970;10.082;2023-11-21T11:47:21;99136.75;;;9.66;62.26
64189;BME280;50493;50.970;10.082;2023-11-21T11:49:56;99136.03;;;9.59;63.20
64189;BME280;50493;50.970;10.082;2023-11-21T11:52:38;99142.06;;;9.63;63.14
64189;BME280;50493;50.970;10.082;2023-11-21T11:55:09;99133.38;;;9.62;64.26
64189;BME280;50493;50.970;10.082;2023-11-21T11:57:35;99138.13;;;9.83;62.90
64189;BME280;50493;50.970;10.082;2023-11-21T12:00:10;99132.50;;;10.01;62.88
64189;BME280;50493;50.970;10.082;2023-11-21T12:02:37;99136.16;;;9.94;63.22
64189;BME280;50493;50.970;10.082;2023-11-21T12:05:08;99141.94;;;10.07;60.65
64189;BME280;50493;50.970;10.082;2023-11-21T12:07:41;99144.06;;;9.91;62.72
64189;BME280;50493;50.970;10.082;2023-11-21T12:10:07;99144.88;;;9.93;60.80
64189;BME280;50493;50.970;10.082;2023-11-21T12:12:36;99141.66;;;8.97;63.41
64189;BME280;50493;50.970;10.082;2023-11-21T12:15:04;99149.09;;;8.67;64.75
64189;BME280;50493;50.970;10.082;2023-11-21T12:17:32;99152.34;;;8.82;65.39
64189;BME280;50493;50.970;10.082;2023-11-21T12:20:02;99146.44;;;9.19;63.25
64189;BME280;50493;50.970;10.082;2023-11-21T12:22:29;99158.78;;;9.10;63.36
64189;BME280;50493;50.970;10.082;2023-11-21T12:24:54;99156.66;;;8.83;64.57
64189;BME280;50493;50.970;10.082;2023-11-21T12:27:20;99155.44;;;9.46;64.40
64189;BME280;50493;50.970;10.082;2023-11-21T12:29:46;99155.78;;;9.71;62.28
64189;BME280;50493;50.970;10.082;2023-11-21T12:32:11;99158.97;;;9.86;62.48
64189;BME280;50493;50.970;10.082;2023-11-21T12:34:38;99156.19;;;9.92;61.06
64189;BME280;50493;50.970;10.082;2023-11-21T12:37:04;99165.31;;;10.13;62.34
64189;BME280;50493;50.970;10.082;2023-11-21T12:39:30;99155.66;;;10.17;62.58
64189;BME280;50493;50.970;10.082;2023-11-21T12:41:55;99160.13;;;10.11;60.75
64189;BME280;50493;50.970;10.082;2023-11-21T12:44:21;99159.94;;;10.19;61.31
64189;BME280;50493;50.970;10.082;2023-11-21T12:46:49;99159.56;;;10.36;60.66
64189;BME280;50493;50.970;10.082;2023-11-21T12:49:15;99162.34;;;10.27;60.48
64189;BME280;50493;50.970;10.082;2023-11-21T12:51:44;99159.00;;;10.23;62.32
64189;BME280;50493;50.970;10.082;2023-11-21T12:54:11;99163.84;;;10.01;62.44
64189;BME280;50493;50.970;10.082;2023-11-21T12:56:38;99162.97;;;10.01;63.79